Obelix — 7JAX — position and weather

sailwx.info

Track history (hours):
 
Tides and Currents Weather Stations Pressure Air Temp Water Temp Dewpoint Dewpoint Depression Visibility Wind Speed Wind Dir Waves Ship Positions

Obelix

Last reported at 2015-Jul-06 16:29 UTC. Time now 2015-Jul-07 17:36 UTC.
Position N 34°42' E 134°46'.

Length 74 m; draft 4.4 m.

Type: Ship (hazmat cat C). MMSI: 432528000.

Date/timePositionNaut miles runAvg speedWind from/ knotsBaromVisibWave heightAir tempDewpointWater temp
2015-Jul-06 16:29N 34°42' E 134°46'  
2015-Jul-02 07:09N 34°37' E 135°01'5 8.6
2015-Jul-02 06:34N 34°35' E 135°07'1111.3
2015-Jul-02 05:33N 34°34' E 135°21'4 4.0
2015-Jul-02 04:31N 34°33' E 135°25'0 0.0
2015-Jul-02 00:19N 34°33' E 135°25'4 4.9
2015-Jul-01 23:31N 34°32' E 135°21'1 0.9
2015-Jul-01 22:30N 34°32' E 135°20'0 0.0
2015-Jul-01 21:30N 34°32' E 135°20'0 0.0
2015-Jul-01 20:30N 34°32' E 135°20'0 0.0
2015-Jul-01 19:30N 34°32' E 135°20'0 0.0
2015-Jul-01 18:30N 34°32' E 135°20'0 0.0
2015-Jul-01 17:06N 34°32' E 135°20'0 0.0
2015-Jul-01 16:30N 34°32' E 135°20'0 0.0
2015-Jul-01 13:24N 34°32' E 135°20'0 0.0
2015-Jul-01 10:30N 34°32' E 135°20'1010.2
2015-Jul-01 09:34N 34°34' E 135°08'1110.3
2015-Jul-01 08:32N 34°36' E 134°56'10 0.5
2015-Jun-30 13:12N 34°42' E 134°46'711.7
2015-Jun-30 12:34N 34°37' E 134°39'8 0.2
2015-Jun-28 13:04N 34°42' E 134°46'711.5
2015-Jun-28 12:25N 34°37' E 134°39'6 0.2
2015-Jun-27 06:33N 34°41' E 134°45'0 0.0
2015-Jun-26 21:33N 34°41' E 134°45'  
Track history (hours):
 
Tides and Currents Weather Stations Pressure Air Temp Water Temp Dewpoint Dewpoint Depression Visibility Wind Speed Wind Dir Waves Ship Positions

Obelix

Last reported at 2015-Jul-06 16:29 UTC. Time now 2015-Jul-07 17:36 UTC.
Position N 34°42' E 134°46'.

Length 74 m; draft 4.4 m.

Type: Ship (hazmat cat C). MMSI: 432528000.

Date/timePositionNaut miles runAvg speedWind from/ knotsBaromVisibWave heightAir tempDewpointWater temp
2015-Jul-06 16:29N 34°42' E 134°46'  
2015-Jul-02 07:09N 34°37' E 135°01'5 8.6
2015-Jul-02 06:34N 34°35' E 135°07'1111.3
2015-Jul-02 05:33N 34°34' E 135°21'4 4.0
2015-Jul-02 04:31N 34°33' E 135°25'0 0.0
2015-Jul-02 00:19N 34°33' E 135°25'4 4.9
2015-Jul-01 23:31N 34°32' E 135°21'1 0.9
2015-Jul-01 22:30N 34°32' E 135°20'0 0.0
2015-Jul-01 21:30N 34°32' E 135°20'0 0.0
2015-Jul-01 20:30N 34°32' E 135°20'0 0.0
2015-Jul-01 19:30N 34°32' E 135°20'0 0.0
2015-Jul-01 18:30N 34°32' E 135°20'0 0.0
2015-Jul-01 17:06N 34°32' E 135°20'0 0.0
2015-Jul-01 16:30N 34°32' E 135°20'0 0.0
2015-Jul-01 13:24N 34°32' E 135°20'0 0.0
2015-Jul-01 10:30N 34°32' E 135°20'1010.2
2015-Jul-01 09:34N 34°34' E 135°08'1110.3
2015-Jul-01 08:32N 34°36' E 134°56'10 0.5
2015-Jun-30 13:12N 34°42' E 134°46'711.7
2015-Jun-30 12:34N 34°37' E 134°39'8 0.2
2015-Jun-28 13:04N 34°42' E 134°46'711.5
2015-Jun-28 12:25N 34°37' E 134°39'6 0.2
2015-Jun-27 06:33N 34°41' E 134°45'0 0.0
2015-Jun-26 21:33N 34°41' E 134°45'  

Dump ship's entire track history